Aviation Digital Data Service (ADDS)

Output produced by TAFs form (1051 UTC 16 July 2018)
found at http://www.aviationweather.gov/adds/tafs/
 
METAR text: LIML 161020Z 14004KT 110V270 CAVOK 26/18 Q1012 NOSIG
Conditions at: LIML (MILANO/LINATE , IT) observed 1020 UTC 16 July 2018
Temperature: 26.0°C (79°F)
Dewpoint: 18.0°C (64°F) [RH = 61%]
Pressure (altimeter): 29.88 inches Hg (1012.0 mb)
Winds: from the SE (140 degrees) at 5 MPH (4 knots; 2.1 m/s)
Visibility: 6 or more miles (10+ km)
Ceiling: ceiling and visibility are OK
Clouds: unknown
Weather: no significant weather observed at this time

Forecast for: LIML (MILANO/LINATE , IT)
Text: TAF LIML 160500Z 1606/1706 VRB05KT 9999 SCT040
Forecast period: 0600 UTC 16 July 2018 to 0600 UTC 17 July 2018
Forecast type: FROM: standard forecast or significant change
Winds: variable direction winds at 6 MPH (5 knots; 2.6 m/s)
Visibility: 6 or more miles (10+ km)
Clouds: scattered clouds at 4000 feet AGL
Weather: no significant weather forecast for this period
Text: TEMPO 1613/1620 TSRA
Forecast period: 1300 to 2000 UTC 16 July 2018
Forecast type: TEMPORARY: The following changes expected for less than half the time period
Weather: TSRA  (rain associated with thunderstorm(s))